Time;durP1;ratioP1;P1;durP2;ratioP2;P2;SDS_P1;SDS_P2;PMS_P1;PMS_P2;Temp;Humidity;BMP_temperature;BMP_pressure;BME280_temperature;BME280_humidity;BME280_pressure;Samples;Min_cycle;Max_cycle;Signal;HPM_P1;HPM_P2
2022/11/07 00:02:01;;;;;;;9.65;5.50;;;;;;;;;;4920302;29;20044;-76
2022/11/07 00:04:30;;;;;;;11.52;5.95;;;;;;;;;;4920707;29;20048;-76
2022/11/07 00:06:57;;;;;;;10.55;5.90;;;;;;;;;;4920851;29;20480;-76
2022/11/07 00:09:23;;;;;;;6.90;4.95;;;;;;;;;;4919048;29;20055;-76
2022/11/07 00:11:49;;;;;;;10.70;5.28;;;;;;;;;;4920347;29;20107;-76
2022/11/07 00:14:16;;;;;;;10.15;5.18;;;;;;;;;;4920771;29;20563;-75
2022/11/07 00:16:42;;;;;;;10.60;6.55;;;;;;;;;;4920035;29;20488;-76
2022/11/07 00:19:09;;;;;;;11.77;7.00;;;;;;;;;;4920512;29;20059;-76
2022/11/07 00:21:35;;;;;;;13.95;6.60;;;;;;;;;;4920201;29;20040;-76
2022/11/07 00:24:01;;;;;;;8.77;5.22;;;;;;;;;;4920636;29;20051;-76
2022/11/07 00:26:27;;;;;;;11.27;6.47;;;;;;;;;;4919868;29;20048;-76
2022/11/07 00:28:53;;;;;;;12.48;5.50;;;;;;;;;;4920361;29;20056;-76
2022/11/07 00:31:20;;;;;;;7.05;3.50;;;;;;;;;;4919991;29;20054;-76
2022/11/07 00:33:46;;;;;;;8.18;5.30;;;;;;;;;;4919948;29;20071;-76
2022/11/07 00:36:16;;;;;;;12.45;5.40;;;;;;;;;;4919902;29;20499;-76
2022/11/07 00:38:43;;;;;;;8.25;4.45;;;;;;;;;;4920193;29;20044;-76
2022/11/07 00:41:09;;;;;;;8.75;5.63;;;;;;;;;;4919676;29;20048;-75
2022/11/07 00:43:35;;;;;;;14.70;5.82;;;;;;;;;;4918907;29;20048;-76
2022/11/07 00:46:02;;;;;;;14.07;6.10;;;;;;;;;;4919397;29;20050;-76
2022/11/07 00:48:28;;;;;;;11.05;5.45;;;;;;;;;;4919230;29;20087;-76
2022/11/07 00:50:54;;;;;;;10.85;5.18;;;;;;;;;;4919356;29;20044;-75
2022/11/07 00:53:20;;;;;;;9.10;6.13;;;;;;;;;;4919109;29;20123;-76
2022/11/07 00:55:47;;;;;;;10.60;5.65;;;;;;;;;;4918903;29;20044;-76
2022/11/07 00:58:13;;;;;;;7.70;4.93;;;;;;;;;;4918985;29;20051;-76
2022/11/07 01:00:39;;;;;;;9.02;5.88;;;;;;;;;;4919061;29;20515;-76
2022/11/07 01:06:00;;;;;;;12.40;5.85;;;;;;;;;;4918614;29;20103;-76
2022/11/07 01:08:27;;;;;;;11.18;6.38;;;;;;;;;;4919097;29;20496;-76
2022/11/07 01:10:53;;;;;;;10.00;5.78;;;;;;;;;;4918858;29;20047;-76
2022/11/07 01:13:20;;;;;;;10.48;5.80;;;;;;;;;;4918997;29;20579;-76
2022/11/07 01:15:46;;;;;;;12.02;5.53;;;;;;;;;;4918949;29;20082;-76
2022/11/07 01:18:12;;;;;;;10.80;5.35;;;;;;;;;;4919036;29;20047;-76
2022/11/07 01:20:39;;;;;;;9.80;4.88;;;;;;;;;;4918732;29;20040;-76
2022/11/07 01:23:06;;;;;;;7.15;4.63;;;;;;;;;;4919411;29;20052;-76
2022/11/07 01:25:32;;;;;;;15.60;7.57;;;;;;;;;;4918553;29;20036;-76
2022/11/07 01:27:58;;;;;;;13.70;7.00;;;;;;;;;;4918999;29;20476;-76
2022/11/07 01:30:24;;;;;;;11.18;5.85;;;;;;;;;;4918915;29;20047;-76
2022/11/07 01:32:50;;;;;;;9.30;4.60;;;;;;;;;;4918683;29;20044;-75
2022/11/07 01:35:16;;;;;;;9.00;5.10;;;;;;;;;;4918621;29;20044;-75
2022/11/07 01:37:42;;;;;;;6.68;4.78;;;;;;;;;;4918613;29;20043;-76
2022/11/07 01:40:09;;;;;;;9.98;4.32;;;;;;;;;;4918689;29;20044;-76
2022/11/07 01:42:35;;;;;;;8.50;4.13;;;;;;;;;;4918309;29;20127;-76
2022/11/07 01:45:01;;;;;;;13.63;6.32;;;;;;;;;;4918538;29;20114;-76
2022/11/07 01:47:33;;;;;;;9.68;5.20;;;;;;;;;;4918898;29;20048;-76
2022/11/07 01:49:59;;;;;;;13.23;5.78;;;;;;;;;;4918845;29;20059;-76
2022/11/07 01:52:25;;;;;;;8.60;4.75;;;;;;;;;;4918708;29;20044;-76
2022/11/07 01:54:51;;;;;;;11.40;5.97;;;;;;;;;;4918529;29;20071;-76
2022/11/07 01:57:23;;;;;;;11.57;5.35;;;;;;;;;;4918384;29;20127;-76
2022/11/07 01:59:50;;;;;;;27.67;13.05;;;;;;;;;;4917970;29;20055;-76
2022/11/07 02:02:16;;;;;;;18.23;7.85;;;;;;;;;;4918869;29;20040;-76
2022/11/07 02:04:43;;;;;;;10.52;5.05;;;;;;;;;;4918535;29;20036;-76
2022/11/07 02:07:12;;;;;;;10.25;5.93;;;;;;;;;;4918453;29;20048;-76
2022/11/07 02:09:39;;;;;;;10.50;6.40;;;;;;;;;;4918728;29;20120;-76
2022/11/07 02:12:05;;;;;;;9.20;5.97;;;;;;;;;;4918709;29;20040;-76
2022/11/07 02:14:31;;;;;;;16.45;12.52;;;;;;;;;;4918839;29;20071;-76
2022/11/07 02:16:57;;;;;;;11.80;7.30;;;;;;;;;;4918456;29;20051;-76
2022/11/07 02:19:30;;;;;;;12.98;7.88;;;;;;;;;;4918906;29;20055;-76
2022/11/07 02:22:05;;;;;;;9.38;6.47;;;;;;;;;;4917897;29;20454;-76
2022/11/07 02:24:32;;;;;;;10.63;6.15;;;;;;;;;;4918636;29;20052;-76
2022/11/07 02:27:00;;;;;;;17.90;7.80;;;;;;;;;;4918031;29;20079;-76
2022/11/07 02:29:26;;;;;;;14.10;5.53;;;;;;;;;;4918810;29;20496;-76
2022/11/07 02:32:06;;;;;;;8.25;5.18;;;;;;;;;;4918322;29;20043;-76
2022/11/07 02:34:32;;;;;;;11.45;5.53;;;;;;;;;;4918031;29;20044;-76
2022/11/07 02:36:59;;;;;;;9.48;4.63;;;;;;;;;;4918023;29;20103;-76
2022/11/07 02:39:26;;;;;;;6.88;5.10;;;;;;;;;;4918254;29;20155;-76
2022/11/07 02:41:52;;;;;;;8.57;4.95;;;;;;;;;;4918159;29;20044;-76
2022/11/07 02:44:19;;;;;;;13.95;5.40;;;;;;;;;;4918219;29;20044;-75
2022/11/07 02:46:45;;;;;;;13.63;5.07;;;;;;;;;;4917562;29;20055;-75
2022/11/07 02:49:12;;;;;;;7.25;4.28;;;;;;;;;;4918345;29;20115;-76
2022/11/07 02:51:38;;;;;;;8.38;4.80;;;;;;;;;;4917817;29;20054;-76
2022/11/07 02:54:04;;;;;;;9.52;4.88;;;;;;;;;;4917884;29;20075;-76
2022/11/07 02:56:30;;;;;;;9.27;3.97;;;;;;;;;;4917699;29;20130;-76
2022/11/07 02:58:57;;;;;;;8.32;4.55;;;;;;;;;;4917812;29;20048;-75
2022/11/07 03:01:23;;;;;;;15.93;8.35;;;;;;;;;;4918359;29;20123;-75
2022/11/07 03:03:50;;;;;;;9.60;5.07;;;;;;;;;;4917837;29;20046;-75
2022/11/07 03:06:18;;;;;;;7.40;4.07;;;;;;;;;;4917685;29;20502;-75
2022/11/07 03:08:44;;;;;;;9.20;5.10;;;;;;;;;;4918330;29;20044;-75
2022/11/07 03:11:10;;;;;;;10.07;6.20;;;;;;;;;;4918362;29;20119;-75
2022/11/07 03:13:37;;;;;;;10.38;5.50;;;;;;;;;;4921679;29;20072;-75
2022/11/07 03:16:07;;;;;;;9.32;4.57;;;;;;;;;;4921125;29;20048;-76
2022/11/07 03:18:34;;;;;;;8.48;4.28;;;;;;;;;;4921408;29;20048;-75
2022/11/07 03:21:00;;;;;;;6.50;3.50;;;;;;;;;;4921006;29;20044;-76
2022/11/07 03:23:26;;;;;;;7.85;4.00;;;;;;;;;;4920695;29;20048;-76
2022/11/07 03:25:52;;;;;;;10.35;3.38;;;;;;;;;;4920393;29;20074;-76
2022/11/07 03:28:18;;;;;;;8.63;4.50;;;;;;;;;;4920873;29;20103;-75
2022/11/07 03:30:44;;;;;;;15.63;5.53;;;;;;;;;;4920998;29;20080;-76
2022/11/07 03:33:10;;;;;;;11.07;4.30;;;;;;;;;;4921043;29;20127;-76
2022/11/07 03:35:36;;;;;;;11.02;4.40;;;;;;;;;;4920725;29;20044;-76
2022/11/07 03:38:03;;;;;;;8.85;3.95;;;;;;;;;;4920989;29;20036;-75
2022/11/07 03:40:29;;;;;;;12.05;4.72;;;;;;;;;;4920695;29;20563;-76
2022/11/07 03:42:55;;;;;;;10.15;4.78;;;;;;;;;;4920247;29;20056;-75
2022/11/07 03:45:21;;;;;;;8.07;4.35;;;;;;;;;;4920577;29;20123;-76
2022/11/07 03:47:47;;;;;;;9.35;3.90;;;;;;;;;;4920224;29;20056;-76
2022/11/07 03:50:15;;;;;;;7.45;4.00;;;;;;;;;;4920502;29;20051;-75
2022/11/07 03:52:41;;;;;;;9.35;5.38;;;;;;;;;;4920204;29;20134;-76
2022/11/07 03:55:08;;;;;;;10.38;6.05;;;;;;;;;;4919901;29;20036;-76
2022/11/07 03:57:34;;;;;;;9.80;5.95;;;;;;;;;;4920358;29;20131;-76
2022/11/07 04:00:01;;;;;;;13.55;6.85;;;;;;;;;;4920354;29;20050;-76
2022/11/07 04:02:27;;;;;;;15.57;6.40;;;;;;;;;;4920270;29;20051;-76
2022/11/07 04:04:53;;;;;;;10.45;5.53;;;;;;;;;;4919971;29;20496;-76
2022/11/07 04:07:19;;;;;;;11.43;5.18;;;;;;;;;;4920099;29;20044;-76
2022/11/07 04:09:45;;;;;;;10.35;5.22;;;;;;;;;;4919805;29;20127;-76
2022/11/07 04:17:40;;;;;;;11.20;4.80;;;;;;;;;;4919532;29;20131;-76
2022/11/07 04:20:07;;;;;;;12.55;5.55;;;;;;;;;;4919967;29;20051;-76
2022/11/07 04:22:33;;;;;;;12.77;5.70;;;;;;;;;;4919013;29;20116;-75
2022/11/07 04:25:00;;;;;;;15.25;7.30;;;;;;;;;;4919408;29;20374;-76
2022/11/07 04:27:41;;;;;;;11.35;5.70;;;;;;;;;;4919755;29;20052;-76
2022/11/07 04:30:21;;;;;;;9.27;4.90;;;;;;;;;;4919789;29;20048;-76
2022/11/07 04:32:48;;;;;;;8.73;4.32;;;;;;;;;;4919796;29;20055;-76
2022/11/07 04:35:14;;;;;;;9.23;5.07;;;;;;;;;;4919798;29;20047;-75
2022/11/07 04:37:40;;;;;;;11.93;5.50;;;;;;;;;;4919932;29;20052;-75
2022/11/07 04:40:07;;;;;;;10.80;5.82;;;;;;;;;;4919736;29;20054;-76
2022/11/07 04:42:33;;;;;;;10.80;5.50;;;;;;;;;;4919322;29;20108;-76
2022/11/07 04:45:00;;;;;;;10.23;4.72;;;;;;;;;;4919781;29;20040;-76
2022/11/07 04:47:26;;;;;;;13.20;4.82;;;;;;;;;;4919672;29;20090;-75
2022/11/07 04:49:52;;;;;;;10.00;4.55;;;;;;;;;;4919788;29;20076;-75
2022/11/07 04:52:18;;;;;;;8.68;4.70;;;;;;;;;;4919390;29;20442;-75
2022/11/07 04:54:44;;;;;;;12.25;5.93;;;;;;;;;;4919175;29;20051;-76
2022/11/07 04:57:10;;;;;;;13.98;5.18;;;;;;;;;;4919581;29;20050;-76
2022/11/07 04:59:36;;;;;;;10.93;5.57;;;;;;;;;;4919063;29;20044;-76
2022/11/07 05:02:02;;;;;;;11.95;6.15;;;;;;;;;;4919776;29;20139;-76
2022/11/07 05:04:29;;;;;;;12.05;5.25;;;;;;;;;;4918900;29;20040;-75
2022/11/07 05:06:55;;;;;;;11.23;5.13;;;;;;;;;;4919588;29;20075;-75
2022/11/07 05:09:21;;;;;;;10.52;5.07;;;;;;;;;;4919272;29;20084;-75
2022/11/07 05:11:47;;;;;;;8.55;4.40;;;;;;;;;;4918764;29;20036;-76
2022/11/07 05:14:14;;;;;;;14.85;4.55;;;;;;;;;;4919404;29;20515;-75
2022/11/07 05:16:41;;;;;;;8.98;5.60;;;;;;;;;;4918988;29;20135;-75
2022/11/07 05:19:07;;;;;;;14.20;6.18;;;;;;;;;;4918846;29;20052;-75
2022/11/07 05:21:33;;;;;;;14.75;6.05;;;;;;;;;;4918910;29;20063;-76
2022/11/07 05:23:59;;;;;;;12.27;6.05;;;;;;;;;;4919057;29;20048;-76
2022/11/07 05:26:25;;;;;;;16.33;6.20;;;;;;;;;;4918581;29;20048;-76
2022/11/07 05:28:52;;;;;;;15.00;6.15;;;;;;;;;;4918181;29;20051;-75
2022/11/07 05:31:18;;;;;;;13.27;5.70;;;;;;;;;;4918714;29;20040;-76
2022/11/07 05:33:44;;;;;;;10.50;5.07;;;;;;;;;;4918656;29;20180;-76
2022/11/07 05:36:12;;;;;;;9.77;4.95;;;;;;;;;;4918405;29;20191;-76
2022/11/07 05:38:39;;;;;;;13.60;5.15;;;;;;;;;;4919186;29;20059;-76
2022/11/07 05:41:05;;;;;;;10.52;4.75;;;;;;;;;;4918119;29;20036;-76
2022/11/07 05:43:31;;;;;;;10.80;4.90;;;;;;;;;;4918930;29;20147;-76
2022/11/07 05:46:01;;;;;;;8.82;4.90;;;;;;;;;;4918733;29;20072;-75
2022/11/07 05:48:27;;;;;;;11.45;5.50;;;;;;;;;;4917233;29;20538;-75
2022/11/07 05:50:53;;;;;;;12.40;4.88;;;;;;;;;;4918179;29;20036;-75
2022/11/07 05:53:20;;;;;;;10.13;4.95;;;;;;;;;;4918000;29;20103;-75
2022/11/07 05:55:46;;;;;;;9.50;5.60;;;;;;;;;;4917880;29;20051;-75
2022/11/07 05:58:13;;;;;;;12.02;5.53;;;;;;;;;;4919121;29;20051;-75
2022/11/07 06:00:40;;;;;;;11.93;5.97;;;;;;;;;;4917474;29;20194;-75
2022/11/07 06:03:06;;;;;;;14.30;6.20;;;;;;;;;;4917530;29;20071;-76
2022/11/07 06:05:32;;;;;;;9.45;4.40;;;;;;;;;;4918017;29;20044;-76
2022/11/07 06:07:59;;;;;;;16.90;4.68;;;;;;;;;;4914545;29;20048;-76
2022/11/07 06:10:25;;;;;;;11.13;5.18;;;;;;;;;;4917846;29;20048;-76
2022/11/07 06:13:01;;;;;;;10.05;5.65;;;;;;;;;;4918375;29;20091;-80
2022/11/07 06:15:28;;;;;;;11.57;6.00;;;;;;;;;;4915252;29;20134;-77
2022/11/07 06:17:54;;;;;;;9.65;4.93;;;;;;;;;;4917519;29;20048;-77
2022/11/07 06:20:20;;;;;;;10.35;6.05;;;;;;;;;;4917024;29;20496;-77
2022/11/07 06:22:46;;;;;;;11.63;5.78;;;;;;;;;;4917587;29;20055;-77
2022/11/07 06:25:13;;;;;;;13.55;8.35;;;;;;;;;;4917637;29;20492;-77
2022/11/07 06:27:39;;;;;;;15.38;6.63;;;;;;;;;;4918267;29;20099;-78
2022/11/07 06:30:05;;;;;;;11.20;4.95;;;;;;;;;;4917619;29;20048;-77
2022/11/07 06:32:32;;;;;;;11.85;5.43;;;;;;;;;;4917332;29;20038;-75
2022/11/07 06:34:58;;;;;;;9.68;4.30;;;;;;;;;;4917934;29;20051;-76
2022/11/07 06:37:27;;;;;;;8.32;4.70;;;;;;;;;;4916595;29;20123;-76
2022/11/07 06:39:53;;;;;;;16.52;5.30;;;;;;;;;;4915055;29;20048;-76
2022/11/07 06:42:25;;;;;;;10.63;5.88;;;;;;;;;;4909059;29;20147;-76
2022/11/07 06:44:51;;;;;;;14.30;5.38;;;;;;;;;;4917693;29;20048;-76
2022/11/07 06:47:17;;;;;;;10.63;4.70;;;;;;;;;;4918595;29;20563;-76
2022/11/07 06:49:43;;;;;;;11.48;3.88;;;;;;;;;;4919751;29;20507;-76
2022/11/07 06:52:10;;;;;;;11.90;4.93;;;;;;;;;;4916628;29;20103;-75
2022/11/07 06:54:36;;;;;;;14.13;6.22;;;;;;;;;;4920317;29;20423;-76
2022/11/07 06:57:02;;;;;;;11.88;6.32;;;;;;;;;;4912239;29;20052;-75
2022/11/07 06:59:28;;;;;;;14.45;6.00;;;;;;;;;;4910744;29;20077;-75
2022/11/07 07:01:54;;;;;;;12.85;7.32;;;;;;;;;;4921113;29;20044;-78
2022/11/07 07:04:20;;;;;;;20.58;8.23;;;;;;;;;;4921039;29;20396;-76
2022/11/07 07:06:46;;;;;;;13.43;8.52;;;;;;;;;;4921080;29;20055;-75
2022/11/07 07:09:12;;;;;;;17.27;9.77;;;;;;;;;;4920881;29;20123;-76
2022/11/07 07:11:41;;;;;;;29.45;15.20;;;;;;;;;;4921250;29;20523;-76
2022/11/07 07:14:07;;;;;;;12.95;7.65;;;;;;;;;;4921428;29;20036;-75
2022/11/07 07:16:33;;;;;;;12.90;7.28;;;;;;;;;;4920998;29;20048;-77
2022/11/07 07:18:59;;;;;;;15.73;7.63;;;;;;;;;;4921653;29;20052;-76
2022/11/07 07:21:26;;;;;;;14.13;8.00;;;;;;;;;;4921009;29;20032;-76
2022/11/07 07:23:52;;;;;;;16.35;7.20;;;;;;;;;;4921025;29;20051;-75
2022/11/07 07:26:18;;;;;;;18.33;7.53;;;;;;;;;;4920782;29;20104;-76
2022/11/07 07:28:44;;;;;;;10.57;5.65;;;;;;;;;;4921525;29;20044;-75
2022/11/07 07:31:19;;;;;;;13.55;6.68;;;;;;;;;;4921187;29;20039;-76
2022/11/07 07:33:46;;;;;;;16.48;7.13;;;;;;;;;;4920893;29;20079;-75
2022/11/07 07:36:12;;;;;;;14.25;7.30;;;;;;;;;;4921361;29;20068;-75
2022/11/07 07:38:38;;;;;;;15.02;8.95;;;;;;;;;;4921340;29;20073;-76
2022/11/07 07:41:05;;;;;;;12.80;6.50;;;;;;;;;;4920819;29;20055;-76
2022/11/07 07:43:31;;;;;;;15.48;6.82;;;;;;;;;;4920879;29;20134;-75
2022/11/07 07:46:02;;;;;;;12.48;6.07;;;;;;;;;;4920506;29;20499;-75
2022/11/07 07:48:28;;;;;;;8.55;4.90;;;;;;;;;;4921170;29;20055;-75
2022/11/07 07:50:54;;;;;;;10.20;5.15;;;;;;;;;;4920528;29;20514;-75
2022/11/07 07:53:20;;;;;;;11.00;6.70;;;;;;;;;;4920473;29;20051;-76
2022/11/07 07:55:46;;;;;;;7.65;4.60;;;;;;;;;;4920234;29;20052;-76
2022/11/07 07:58:13;;;;;;;25.67;6.10;;;;;;;;;;4919016;29;20107;-75
2022/11/07 08:00:39;;;;;;;16.63;7.57;;;;;;;;;;4920161;29;20492;-75
2022/11/07 08:03:07;;;;;;;12.13;6.30;;;;;;;;;;4920039;29;20214;-75
2022/11/07 08:05:33;;;;;;;17.80;8.52;;;;;;;;;;4920044;29;20567;-75
2022/11/07 08:08:00;;;;;;;9.00;5.88;;;;;;;;;;4920145;29;20111;-76
2022/11/07 08:10:26;;;;;;;9.90;5.00;;;;;;;;;;4920237;29;20048;-75
2022/11/07 08:12:52;;;;;;;9.90;4.35;;;;;;;;;;4920177;29;20092;-75
2022/11/07 08:15:19;;;;;;;13.00;5.30;;;;;;;;;;4920061;29;20048;-76
2022/11/07 08:17:46;;;;;;;11.63;5.47;;;;;;;;;;4920047;29;20135;-75
2022/11/07 08:20:13;;;;;;;10.50;5.15;;;;;;;;;;4920213;29;20092;-75
2022/11/07 08:22:39;;;;;;;14.55;5.57;;;;;;;;;;4920218;29;20036;-76
2022/11/07 08:25:07;;;;;;;12.65;6.05;;;;;;;;;;4919736;29;20044;-76
2022/11/07 08:27:33;;;;;;;10.07;5.72;;;;;;;;;;4919523;29;20111;-75
2022/11/07 08:29:59;;;;;;;13.65;5.35;;;;;;;;;;4919881;29;20073;-75
2022/11/07 08:32:28;;;;;;;12.13;4.15;;;;;;;;;;4919843;29;20040;-75
2022/11/07 08:34:55;;;;;;;8.32;4.15;;;;;;;;;;4919484;29;20048;-75
2022/11/07 08:37:22;;;;;;;9.07;4.40;;;;;;;;;;4919714;29;20054;-75
2022/11/07 08:39:48;;;;;;;8.43;5.00;;;;;;;;;;4919848;29;20079;-75
2022/11/07 08:42:14;;;;;;;7.68;5.13;;;;;;;;;;4919979;29;20060;-75
2022/11/07 08:44:40;;;;;;;11.43;5.30;;;;;;;;;;4919901;29;20078;-76
2022/11/07 08:47:07;;;;;;;8.48;4.70;;;;;;;;;;4919455;29;20056;-75
2022/11/07 08:49:33;;;;;;;7.57;4.10;;;;;;;;;;4919878;29;20535;-75
2022/11/07 08:52:00;;;;;;;7.72;3.13;;;;;;;;;;4920017;29;20047;-75
2022/11/07 08:54:27;;;;;;;9.45;4.45;;;;;;;;;;4919455;29;20036;-75
2022/11/07 08:56:53;;;;;;;6.82;4.70;;;;;;;;;;4919930;29;20156;-75
2022/11/07 08:59:20;;;;;;;9.00;4.95;;;;;;;;;;4920033;29;20055;-75
2022/11/07 09:01:47;;;;;;;10.10;5.07;;;;;;;;;;4919547;29;20059;-75
2022/11/07 09:04:13;;;;;;;9.77;4.95;;;;;;;;;;4919710;29;20047;-75
2022/11/07 09:06:39;;;;;;;11.48;5.32;;;;;;;;;;4919084;29;20044;-75
2022/11/07 09:09:05;;;;;;;10.07;4.97;;;;;;;;;;4918964;29;20048;-76
2022/11/07 09:11:31;;;;;;;13.65;7.18;;;;;;;;;;4919240;29;20047;-75
2022/11/07 09:13:57;;;;;;;10.43;5.72;;;;;;;;;;4919059;29;20035;-75
2022/11/07 09:16:23;;;;;;;14.13;5.55;;;;;;;;;;4919309;29;20099;-76
2022/11/07 09:18:51;;;;;;;9.68;5.35;;;;;;;;;;4919056;29;20040;-75
2022/11/07 09:21:17;;;;;;;12.73;6.25;;;;;;;;;;4919911;29;20070;-76
2022/11/07 09:23:43;;;;;;;14.93;6.75;;;;;;;;;;4919143;29;20103;-75
2022/11/07 09:26:10;;;;;;;14.63;6.85;;;;;;;;;;4918874;29;20052;-76
2022/11/07 09:28:36;;;;;;;16.25;7.72;;;;;;;;;;4918511;29;20040;-76
2022/11/07 09:31:03;;;;;;;15.10;7.70;;;;;;;;;;4919047;29;20514;-76
2022/11/07 09:33:30;;;;;;;14.18;7.13;;;;;;;;;;4918983;29;20119;-76
2022/11/07 09:36:03;;;;;;;15.00;7.43;;;;;;;;;;4918912;29;20571;-76
2022/11/07 09:38:29;;;;;;;17.17;7.53;;;;;;;;;;4918916;29;20043;-76
2022/11/07 09:40:58;;;;;;;13.25;7.72;;;;;;;;;;4918500;29;20044;-76
2022/11/07 09:43:49;;;;;;;13.80;7.80;;;;;;;;;;4919047;29;20107;-76
2022/11/07 09:46:16;;;;;;;13.85;7.40;;;;;;;;;;4919168;29;20051;-76
2022/11/07 09:48:51;;;;;;;15.88;7.05;;;;;;;;;;4919076;29;20044;-76
2022/11/07 09:51:43;;;;;;;11.98;6.25;;;;;;;;;;4918808;29;20047;-75
2022/11/07 09:54:15;;;;;;;13.30;5.07;;;;;;;;;;4916782;29;20052;-76
2022/11/07 09:56:43;;;;;;;13.35;5.60;;;;;;;;;;4918310;29;20044;-76
2022/11/07 09:59:16;;;;;;;7.28;4.30;;;;;;;;;;4918751;29;20129;-76
2022/11/07 10:01:42;;;;;;;11.82;5.35;;;;;;;;;;4918149;29;20048;-76
2022/11/07 10:04:14;;;;;;;10.25;3.97;;;;;;;;;;4918979;29;20187;-75
2022/11/07 10:06:45;;;;;;;11.57;4.07;;;;;;;;;;4918007;29;20069;-76
2022/11/07 10:09:24;;;;;;;14.90;3.78;;;;;;;;;;4918569;29;20513;-76
2022/11/07 10:11:53;;;;;;;8.70;4.07;;;;;;;;;;4918316;29;20506;-76
2022/11/07 10:14:32;;;;;;;10.23;3.22;;;;;;;;;;4917955;29;20044;-76
2022/11/07 10:17:11;;;;;;;11.75;3.08;;;;;;;;;;4918242;29;20107;-76
2022/11/07 10:19:37;;;;;;;24.73;3.42;;;;;;;;;;4918438;29;20040;-76
2022/11/07 10:22:19;;;;;;;14.32;2.67;;;;;;;;;;4920232;29;20036;-75
2022/11/07 10:24:54;;;;;;;25.77;4.93;;;;;;;;;;4921630;29;20040;-76
2022/11/07 10:27:22;;;;;;;19.60;7.07;;;;;;;;;;4922223;29;20056;-76
2022/11/07 10:29:53;;;;;;;18.33;7.57;;;;;;;;;;4922081;29;20055;-76
2022/11/07 10:32:34;;;;;;;15.20;4.88;;;;;;;;;;4921687;29;20527;-76
2022/11/07 10:35:14;;;;;;;14.05;3.13;;;;;;;;;;4921841;29;20044;-76
2022/11/07 10:37:41;;;;;;;5.00;1.70;;;;;;;;;;4921314;29;20044;-76
2022/11/07 10:40:18;;;;;;;6.20;2.78;;;;;;;;;;4921436;29;20248;-76
2022/11/07 10:42:45;;;;;;;3.22;1.20;;;;;;;;;;4921709;29;20059;-76
2022/11/07 10:45:13;;;;;;;2.63;1.20;;;;;;;;;;4921854;29;20100;-76
2022/11/07 10:47:40;;;;;;;3.50;1.40;;;;;;;;;;4921331;29;20044;-76
2022/11/07 10:50:20;;;;;;;5.15;1.90;;;;;;;;;;4921546;29;20056;-76
2022/11/07 10:52:56;;;;;;;3.63;1.17;;;;;;;;;;4921885;29;20520;-76
2022/11/07 10:55:22;;;;;;;5.10;1.90;;;;;;;;;;4921553;29;20114;-76
2022/11/07 10:58:07;;;;;;;6.03;3.33;;;;;;;;;;4921766;29;20059;-75
2022/11/07 11:00:36;;;;;;;4.25;1.50;;;;;;;;;;4921057;29;20040;-76
2022/11/07 11:03:02;;;;;;;2.28;0.80;;;;;;;;;;4921418;29;20048;-76
2022/11/07 11:05:28;;;;;;;2.25;1.00;;;;;;;;;;4921173;29;20032;-76
2022/11/07 11:07:55;;;;;;;2.15;0.98;;;;;;;;;;4921017;29;20055;-76
2022/11/07 11:10:25;;;;;;;3.40;0.80;;;;;;;;;;4920879;29;20519;-76
2022/11/07 11:12:51;;;;;;;3.42;0.98;;;;;;;;;;4921238;29;20047;-76
2022/11/07 11:15:18;;;;;;;4.10;1.08;;;;;;;;;;4921355;29;20040;-76
2022/11/07 11:17:44;;;;;;;2.28;0.90;;;;;;;;;;4920884;29;20048;-76
2022/11/07 11:20:29;;;;;;;1.52;0.93;;;;;;;;;;4921213;29;20044;-76
2022/11/07 11:22:56;;;;;;;3.17;1.00;;;;;;;;;;4921084;29;20040;-76
2022/11/07 11:25:25;;;;;;;2.83;1.25;;;;;;;;;;4920587;29;20404;-77
2022/11/07 11:28:20;;;;;;;2.30;1.00;;;;;;;;;;4920852;29;20066;-77
2022/11/07 11:30:50;;;;;;;4.78;1.40;;;;;;;;;;4912117;29;20143;-77
2022/11/07 11:33:19;;;;;;;10.10;1.52;;;;;;;;;;4920818;29;20044;-76
2022/11/07 11:35:45;;;;;;;8.55;7.72;;;;;;;;;;4920893;29;20051;-76
2022/11/07 11:38:14;;;;;;;2.22;1.00;;;;;;;;;;4920778;29;20047;-76
2022/11/07 11:40:44;;;;;;;5.10;1.30;;;;;;;;;;4920663;29;20075;-75
2022/11/07 11:43:10;;;;;;;3.08;1.42;;;;;;;;;;4920506;29;20056;-75
2022/11/07 11:45:39;;;;;;;2.92;1.23;;;;;;;;;;4920696;29;20053;-76
2022/11/07 11:48:15;;;;;;;3.05;0.77;;;;;;;;;;4920283;29;20048;-75
2022/11/07 11:50:43;;;;;;;1.20;0.88;;;;;;;;;;4920681;29;20616;-76
2022/11/07 11:53:15;;;;;;;4.68;1.25;;;;;;;;;;4920807;29;20048;-76
2022/11/07 11:55:48;;;;;;;2.60;1.15;;;;;;;;;;4934992;29;20044;-76
2022/11/07 11:58:26;;;;;;;4.47;1.40;;;;;;;;;;4921038;29;20485;-76
2022/11/07 12:01:01;;;;;;;2.17;0.98;;;;;;;;;;4920450;29;20197;-76
2022/11/07 12:03:31;;;;;;;1.65;0.95;;;;;;;;;;4920605;29;20052;-76
2022/11/07 12:06:06;;;;;;;4.68;1.02;;;;;;;;;;4919918;29;20398;-76
2022/11/07 12:08:35;;;;;;;1.83;0.88;;;;;;;;;;4920908;29;20052;-76
2022/11/07 12:11:11;;;;;;;3.05;0.82;;;;;;;;;;4920017;29;20067;-76
2022/11/07 12:13:40;;;;;;;3.08;1.17;;;;;;;;;;4920225;29;20059;-76
2022/11/07 12:16:25;;;;;;;3.22;1.60;;;;;;;;;;4920135;29;20044;-76
2022/11/07 12:19:09;;;;;;;2.42;1.00;;;;;;;;;;4920387;29;20118;-76
2022/11/07 12:21:39;;;;;;;3.35;1.63;;;;;;;;;;4920300;29;20072;-76
2022/11/07 12:24:09;;;;;;;1.95;0.70;;;;;;;;;;4920255;29;20043;-76
2022/11/07 12:27:01;;;;;;;1.98;0.93;;;;;;;;;;4919770;29;20052;-76
2022/11/07 12:29:33;;;;;;;1.75;0.93;;;;;;;;;;4904340;29;20051;-76
2022/11/07 12:31:59;;;;;;;1.88;0.90;;;;;;;;;;4920168;29;20048;-76
2022/11/07 12:34:52;;;;;;;3.08;0.90;;;;;;;;;;4919518;29;20487;-76
2022/11/07 12:37:18;;;;;;;2.90;1.00;;;;;;;;;;4919235;29;20426;-76
2022/11/07 12:39:50;;;;;;;3.55;0.95;;;;;;;;;;4919245;29;20099;-76
2022/11/07 12:42:19;;;;;;;2.72;0.70;;;;;;;;;;4919378;29;20087;-76
2022/11/07 12:44:54;;;;;;;3.22;0.98;;;;;;;;;;4918942;29;20051;-76
2022/11/07 12:47:41;;;;;;;4.95;1.02;;;;;;;;;;4919413;29;20047;-76
2022/11/07 12:50:07;;;;;;;1.77;1.00;;;;;;;;;;4919359;29;20059;-76
2022/11/07 12:52:39;;;;;;;2.60;1.35;;;;;;;;;;4919950;29;20099;-76
2022/11/07 12:55:28;;;;;;;2.28;0.70;;;;;;;;;;4919549;29;20094;-76
2022/11/07 12:57:55;;;;;;;5.30;1.20;;;;;;;;;;4919648;29;20082;-76
2022/11/07 13:00:23;;;;;;;2.28;1.00;;;;;;;;;;4919235;29;20044;-76
2022/11/07 13:02:50;;;;;;;2.65;1.02;;;;;;;;;;4919245;29;20168;-76
2022/11/07 13:05:34;;;;;;;2.83;1.02;;;;;;;;;;4919214;29;20040;-76
2022/11/07 13:08:17;;;;;;;5.03;1.48;;;;;;;;;;4919155;29;20047;-76
2022/11/07 13:10:48;;;;;;;4.63;1.95;;;;;;;;;;4919128;29;20048;-75
2022/11/07 13:13:21;;;;;;;5.10;1.60;;;;;;;;;;4919230;29;20040;-76
2022/11/07 13:15:47;;;;;;;3.67;1.00;;;;;;;;;;4919181;29;20503;-76
2022/11/07 13:18:24;;;;;;;3.33;1.05;;;;;;;;;;4918723;29;20044;-76
2022/11/07 13:21:03;;;;;;;1.30;0.90;;;;;;;;;;4918757;29;20048;-76
2022/11/07 13:23:29;;;;;;;3.20;1.60;;;;;;;;;;4919442;29;20035;-76
2022/11/07 13:26:00;;;;;;;4.45;1.05;;;;;;;;;;4918336;29;20044;-76
2022/11/07 13:28:29;;;;;;;2.92;0.98;;;;;;;;;;4919451;29;20051;-76
2022/11/07 13:30:56;;;;;;;1.83;0.98;;;;;;;;;;4918446;29;20403;-76
2022/11/07 13:33:27;;;;;;;4.13;1.50;;;;;;;;;;4918714;29;20044;-76
2022/11/07 13:35:55;;;;;;;7.47;2.88;;;;;;;;;;4918713;29;20078;-76
2022/11/07 13:38:22;;;;;;;3.88;2.10;;;;;;;;;;4918623;29;20044;-76
2022/11/07 13:40:48;;;;;;;3.95;1.92;;;;;;;;;;4918533;29;20131;-76
2022/11/07 13:43:17;;;;;;;6.13;1.67;;;;;;;;;;4918757;29;20124;-76
2022/11/07 13:45:43;;;;;;;7.38;3.50;;;;;;;;;;4918876;29;20040;-76
2022/11/07 13:48:21;;;;;;;4.47;1.42;;;;;;;;;;4919285;29;20055;-76
2022/11/07 13:50:58;;;;;;;2.58;0.90;;;;;;;;;;4918920;29;20131;-76
2022/11/07 13:53:27;;;;;;;3.63;2.13;;;;;;;;;;4919059;29;20123;-75
2022/11/07 13:56:11;;;;;;;4.20;1.88;;;;;;;;;;4917485;29;20032;-76
2022/11/07 13:58:38;;;;;;;6.43;1.13;;;;;;;;;;4919034;29;20040;-76
2022/11/07 14:01:11;;;;;;;8.50;2.08;;;;;;;;;;4918655;29;20048;-76
2022/11/07 14:03:38;;;;;;;2.70;1.00;;;;;;;;;;4918634;29;20130;-76
2022/11/07 14:06:05;;;;;;;1.67;1.00;;;;;;;;;;4918507;29;20506;-76
2022/11/07 14:08:33;;;;;;;4.68;0.98;;;;;;;;;;4918828;29;20047;-75
2022/11/07 14:11:00;;;;;;;6.80;1.27;;;;;;;;;;4918056;29;20563;-75
2022/11/07 14:13:28;;;;;;;5.45;1.15;;;;;;;;;;4918206;29;20353;-75
2022/11/07 14:16:00;;;;;;;3.42;1.00;;;;;;;;;;4918516;29;20039;-76
2022/11/07 14:18:31;;;;;;;2.05;0.90;;;;;;;;;;4918818;29;20048;-76
2022/11/07 14:20:58;;;;;;;3.90;1.23;;;;;;;;;;4917928;29;20487;-76
2022/11/07 14:23:31;;;;;;;4.55;1.23;;;;;;;;;;4918436;29;20095;-76
2022/11/07 14:25:59;;;;;;;3.95;1.30;;;;;;;;;;4918204;29;20036;-75
2022/11/07 14:28:29;;;;;;;9.07;5.00;;;;;;;;;;4918410;29;20055;-76
2022/11/07 14:30:55;;;;;;;3.10;1.10;;;;;;;;;;4918492;29;20044;-76
2022/11/07 14:33:22;;;;;;;4.47;1.30;;;;;;;;;;4918367;29;20055;-76
2022/11/07 14:35:49;;;;;;;2.47;0.80;;;;;;;;;;4918327;29;20044;-76
2022/11/07 14:38:18;;;;;;;4.38;1.05;;;;;;;;;;4918006;29;20591;-76
2022/11/07 14:40:45;;;;;;;2.40;0.82;;;;;;;;;;4917539;29;20040;-76
2022/11/07 14:43:13;;;;;;;2.83;0.85;;;;;;;;;;4918769;29;20063;-75
2022/11/07 14:45:39;;;;;;;1.80;0.90;;;;;;;;;;4917988;29;20036;-76
2022/11/07 14:48:06;;;;;;;2.15;0.90;;;;;;;;;;4918734;29;20048;-76
2022/11/07 14:50:33;;;;;;;5.07;1.20;;;;;;;;;;4918125;29;20040;-77
2022/11/07 14:52:59;;;;;;;1.60;0.90;;;;;;;;;;4917922;29;20050;-76